Time;durP1;ratioP1;P1;durP2;ratioP2;P2;SDS_P1;SDS_P2;PMS_P1;PMS_P2;Temp;Humidity;BMP_temperature;BMP_pressure;BME280_temperature;BME280_humidity;BME280_pressure;Samples;Min_cycle;Max_cycle;Signal;HPM_P1;HPM_P2
2022/08/25 00:00:09;;;;;;;3.33;2.35;;;20.80;99.90;;;;;;5009303;28;20116;-70
2022/08/25 00:02:36;;;;;;;3.70;2.38;;;20.80;99.90;;;;;;5019275;28;20058;-70
2022/08/25 00:05:04;;;;;;;5.55;2.40;;;20.80;99.90;;;;;;5011348;28;20485;-70
2022/08/25 00:07:32;;;;;;;3.55;2.05;;;20.80;99.90;;;;;;5011965;28;20053;-70
2022/08/25 00:09:59;;;;;;;3.67;2.65;;;20.80;99.90;;;;;;5029481;28;20050;-70
2022/08/25 00:12:26;;;;;;;2.63;1.92;;;20.70;99.90;;;;;;5031038;28;20132;-70
2022/08/25 00:14:53;;;;;;;3.83;2.47;;;20.70;99.90;;;;;;5031250;28;20489;-69
2022/08/25 00:17:20;;;;;;;3.45;2.30;;;20.70;99.90;;;;;;5020887;28;20050;-65
2022/08/25 00:19:47;;;;;;;4.15;2.92;;;20.70;99.90;;;;;;5022696;28;20045;-70
2022/08/25 00:22:14;;;;;;;3.88;2.45;;;20.60;99.90;;;;;;5026388;28;20505;-70
2022/08/25 00:24:41;;;;;;;4.35;2.28;;;20.60;99.90;;;;;;5027051;28;20057;-69
2022/08/25 00:27:11;;;;;;;5.05;2.40;;;20.60;99.90;;;;;;5019166;28;20125;-70
2022/08/25 00:29:38;;;;;;;3.78;2.10;;;20.60;99.90;;;;;;5025024;28;20041;-70
2022/08/25 00:32:05;;;;;;;4.25;2.63;;;20.60;99.90;;;;;;5026624;28;20397;-69
2022/08/25 00:34:34;;;;;;;2.90;2.30;;;20.60;99.90;;;;;;5028666;28;20057;-70
2022/08/25 00:37:02;;;;;;;4.35;2.10;;;20.60;99.90;;;;;;5021377;28;20056;-69
2022/08/25 00:39:29;;;;;;;4.45;2.10;;;20.60;99.90;;;;;;5010526;28;20081;-69
2022/08/25 00:41:56;;;;;;;4.07;2.45;;;20.50;99.90;;;;;;5028833;28;20053;-70
2022/08/25 00:44:24;;;;;;;3.35;2.53;;;20.50;99.90;;;;;;5026775;28;20081;-70
2022/08/25 00:46:54;;;;;;;3.63;2.35;;;20.40;99.90;;;;;;5026709;28;20046;-70
2022/08/25 00:49:28;;;;;;;;;;;20.40;99.90;;;;;;5026309;28;20053;-69
2022/08/25 00:52:00;;;;;;;3.50;2.38;;;20.40;99.90;;;;;;5025474;28;19929;-70
2022/08/25 00:54:49;;;;;;;2.90;2.20;;;20.40;99.90;;;;;;5006373;28;20489;-70
2022/08/25 00:57:19;;;;;;;3.92;2.10;;;20.40;99.90;;;;;;5024998;28;20065;-70
2022/08/25 00:59:59;;;;;;;3.25;2.28;;;20.30;99.90;;;;;;5027054;28;20041;-70
2022/08/25 01:02:27;;;;;;;5.03;2.40;;;20.30;99.90;;;;;;5025178;28;20041;-70
2022/08/25 01:04:54;;;;;;;4.80;2.95;;;20.30;99.90;;;;;;5012196;28;20061;-70
2022/08/25 01:07:22;;;;;;;4.45;2.15;;;20.40;99.90;;;;;;5029243;28;20124;-69
2022/08/25 01:09:49;;;;;;;2.90;2.20;;;20.40;99.90;;;;;;5026380;28;20412;-69
2022/08/25 01:12:16;;;;;;;3.95;2.85;;;20.40;99.90;;;;;;5028113;28;20050;-70
2022/08/25 01:14:45;;;;;;;2.70;2.08;;;20.40;99.90;;;;;;5025829;28;20136;-70
2022/08/25 01:17:12;;;;;;;3.17;2.17;;;20.50;99.90;;;;;;5022886;28;20326;-70
2022/08/25 01:19:39;;;;;;;2.70;2.20;;;20.50;99.90;;;;;;5030041;28;20152;-70
2022/08/25 01:22:06;;;;;;;3.25;2.75;;;20.50;99.90;;;;;;5023992;28;20133;-70
2022/08/25 01:24:41;;;;;;;3.17;2.25;;;20.50;99.90;;;;;;5024345;28;20444;-70
2022/08/25 01:27:08;;;;;;;3.67;2.47;;;20.60;99.90;;;;;;5017855;28;20053;-69
2022/08/25 01:29:36;;;;;;;2.97;2.10;;;20.60;99.90;;;;;;5029101;28;20042;-70
2022/08/25 01:32:05;;;;;;;5.57;2.88;;;20.60;99.90;;;;;;5028673;28;20052;-69
2022/08/25 01:34:34;;;;;;;3.33;2.30;;;20.70;99.90;;;;;;5025952;28;20050;-70
2022/08/25 01:37:01;;;;;;;3.80;2.53;;;20.70;99.90;;;;;;5013566;28;20486;-71
2022/08/25 01:39:29;;;;;;;4.15;2.92;;;20.70;99.90;;;;;;5010500;28;20507;-71
2022/08/25 01:42:03;;;;;;;3.75;2.95;;;20.70;99.90;;;;;;5010579;28;20073;-72
2022/08/25 01:44:32;;;;;;;3.33;2.67;;;20.70;99.90;;;;;;5022905;28;20504;-71
2022/08/25 01:46:59;;;;;;;3.22;2.35;;;20.70;99.90;;;;;;5031327;28;20123;-71
2022/08/25 01:49:26;;;;;;;4.63;2.53;;;20.70;99.90;;;;;;5031670;28;20049;-72
2022/08/25 01:51:57;;;;;;;6.43;2.70;;;20.70;99.90;;;;;;5030057;28;20064;-71
2022/08/25 01:54:23;;;;;;;3.90;2.67;;;20.80;99.90;;;;;;5018147;28;20093;-71
2022/08/25 01:56:50;;;;;;;4.40;2.70;;;20.70;99.90;;;;;;4995874;28;20051;-72
2022/08/25 01:59:18;;;;;;;4.00;2.30;;;20.70;99.90;;;;;;5023413;28;20049;-72
2022/08/25 02:01:50;;;;;;;4.70;2.45;;;20.80;99.90;;;;;;5025964;28;20057;-71
2022/08/25 02:04:28;;;;;;;4.32;2.63;;;20.70;99.90;;;;;;5033257;28;20084;-72
2022/08/25 02:06:55;;;;;;;3.55;2.65;;;20.70;99.90;;;;;;5023214;28;20073;-71
2022/08/25 02:09:22;;;;;;;4.60;3.00;;;20.70;99.90;;;;;;5028118;28;20452;-72
2022/08/25 02:11:49;;;;;;;3.38;2.65;;;20.60;99.90;;;;;;5032122;28;20421;-70
2022/08/25 02:14:17;;;;;;;3.13;2.42;;;20.50;99.90;;;;;;5032061;28;20060;-72
2022/08/25 02:16:47;;;;;;;3.53;2.38;;;20.50;99.90;;;;;;5033378;28;20049;-72
2022/08/25 02:19:14;;;;;;;3.65;2.83;;;20.50;99.90;;;;;;5016834;28;20046;-72
2022/08/25 02:21:41;;;;;;;4.75;2.72;;;20.50;99.90;;;;;;5031222;28;20037;-71
2022/08/25 02:24:09;;;;;;;4.40;2.88;;;20.50;99.90;;;;;;5019761;28;20892;-71
2022/08/25 02:26:36;;;;;;;3.42;2.80;;;20.50;99.90;;;;;;5029757;28;20500;-71
2022/08/25 02:29:03;;;;;;;5.85;3.40;;;20.50;99.90;;;;;;5017621;28;20048;-71
2022/08/25 02:31:30;;;;;;;4.95;3.28;;;20.50;99.90;;;;;;5028791;28;20049;-72
2022/08/25 02:33:57;;;;;;;6.45;4.00;;;20.40;99.90;;;;;;5007452;28;20492;-72
2022/08/25 02:36:24;;;;;;;8.20;3.85;;;20.40;99.90;;;;;;5032911;28;20049;-72
2022/08/25 02:38:51;;;;;;;6.40;4.57;;;20.50;99.90;;;;;;5015179;28;20132;-72
2022/08/25 02:41:20;;;;;;;5.20;3.88;;;20.60;99.90;;;;;;5028867;28;20049;-72
2022/08/25 02:43:54;;;;;;;6.60;4.50;;;20.60;99.90;;;;;;5017798;28;20049;-72
2022/08/25 02:46:21;;;;;;;6.38;3.75;;;20.60;99.90;;;;;;5032660;28;20085;-72
2022/08/25 02:48:50;;;;;;;8.60;4.07;;;20.70;99.90;;;;;;5033035;28;20045;-72
2022/08/25 02:51:17;;;;;;;13.93;4.95;;;20.70;99.90;;;;;;5033266;28;20049;-72
2022/08/25 02:53:45;;;;;;;6.50;4.10;;;20.70;99.90;;;;;;5022975;28;20046;-72
2022/08/25 02:56:13;;;;;;;9.02;4.20;;;20.80;99.90;;;;;;5026729;28;20045;-72
2022/08/25 02:58:40;;;;;;;9.38;4.25;;;20.80;99.90;;;;;;5003553;28;20489;-72
2022/08/25 03:01:10;;;;;;;9.75;4.13;;;20.80;99.90;;;;;;5028769;28;20042;-71
2022/08/25 03:03:41;;;;;;;7.07;4.63;;;20.80;99.90;;;;;;5013415;28;20052;-72
2022/08/25 03:06:10;;;;;;;7.88;5.03;;;20.80;99.90;;;;;;5027455;28;20057;-72
2022/08/25 03:08:37;;;;;;;6.78;4.35;;;20.80;99.90;;;;;;5032473;28;20137;-72
2022/08/25 03:11:04;;;;;;;7.45;4.07;;;20.70;99.90;;;;;;5032597;28;20064;-72
2022/08/25 03:13:31;;;;;;;6.03;3.63;;;20.70;99.90;;;;;;5011217;28;20509;-69
2022/08/25 03:15:59;;;;;;;6.70;4.13;;;20.70;99.90;;;;;;5028912;28;20045;-72
2022/08/25 03:18:26;;;;;;;4.95;3.65;;;20.70;99.90;;;;;;5020984;28;20056;-74
2022/08/25 03:20:53;;;;;;;6.80;4.03;;;20.70;99.90;;;;;;5027701;28;20571;-72
2022/08/25 03:23:21;;;;;;;6.57;3.90;;;20.70;99.90;;;;;;5024015;28;20049;-71
2022/08/25 03:28:36;;;;;;;4.75;3.30;;;20.70;99.90;;;;;;5026544;28;20129;-72
2022/08/25 03:31:03;;;;;;;8.45;3.92;;;20.70;99.90;;;;;;5026641;28;20493;-72
2022/08/25 03:33:30;;;;;;;6.38;3.80;;;20.80;99.90;;;;;;5026733;28;20061;-72
2022/08/25 03:35:57;;;;;;;5.32;4.18;;;20.80;99.90;;;;;;5027835;28;20068;-72
2022/08/25 03:38:25;;;;;;;5.03;3.72;;;20.80;99.90;;;;;;5030644;28;20053;-72
2022/08/25 03:40:52;;;;;;;8.63;3.35;;;20.80;99.90;;;;;;5027360;28;20112;-72
2022/08/25 03:43:19;;;;;;;5.78;3.92;;;20.70;99.90;;;;;;5022678;28;20049;-72
2022/08/25 03:45:46;;;;;;;24.08;19.98;;;20.70;99.90;;;;;;5011641;28;20412;-78
2022/08/25 03:48:14;;;;;;;9.02;8.07;;;20.70;99.90;;;;;;5017290;28;20089;-77
2022/08/25 03:50:49;;;;;;;9.35;6.78;;;20.70;99.90;;;;;;4994038;28;20138;-80
2022/08/25 03:53:18;;;;;;;8.48;4.25;;;20.70;99.90;;;;;;5009425;28;20138;-73
2022/08/25 03:55:45;;;;;;;5.47;3.20;;;20.70;99.90;;;;;;5009912;28;20082;-73
2022/08/25 03:58:12;;;;;;;6.13;3.25;;;20.70;99.90;;;;;;5025418;28;20118;-73
2022/08/25 04:00:39;;;;;;;4.57;3.22;;;20.70;99.90;;;;;;5027999;28;20485;-72
2022/08/25 04:03:06;;;;;;;6.88;3.65;;;20.70;99.90;;;;;;5027344;28;20041;-73
2022/08/25 04:05:34;;;;;;;7.40;3.72;;;20.80;99.90;;;;;;5029046;28;20041;-73
2022/08/25 04:08:01;;;;;;;9.30;3.15;;;20.80;99.90;;;;;;5020135;28;20048;-73
2022/08/25 04:10:28;;;;;;;4.35;3.28;;;20.70;99.90;;;;;;5028545;28;20043;-73
2022/08/25 04:12:55;;;;;;;5.40;3.47;;;20.70;99.90;;;;;;5027291;28;20053;-74
2022/08/25 04:15:24;;;;;;;7.47;3.95;;;20.60;99.90;;;;;;5013255;28;20119;-73
2022/08/25 04:17:57;;;;;;;7.40;4.20;;;20.60;99.90;;;;;;5021271;28;20053;-68
2022/08/25 04:20:24;;;;;;;9.27;4.72;;;20.60;99.90;;;;;;5027361;28;20122;-71
2022/08/25 04:22:51;;;;;;;6.82;4.45;;;20.50;99.90;;;;;;5024809;28;20137;-70
2022/08/25 04:25:19;;;;;;;10.65;5.03;;;20.40;99.90;;;;;;5015871;28;20049;-71
2022/08/25 04:27:45;;;;;;;14.65;6.53;;;20.40;99.90;;;;;;5027650;28;20053;-69
2022/08/25 04:30:13;;;;;;;22.40;9.93;;;20.30;99.90;;;;;;5027973;28;20489;-68
2022/08/25 04:32:41;;;;;;;23.80;8.15;;;20.20;99.90;;;;;;5028291;28;20137;-71
2022/08/25 04:35:09;;;;;;;13.82;6.43;;;20.20;99.90;;;;;;5026647;28;20128;-69
2022/08/25 04:37:36;;;;;;;9.63;5.38;;;20.20;99.90;;;;;;5028354;28;20045;-69
2022/08/25 04:40:03;;;;;;;11.93;5.93;;;20.10;99.90;;;;;;5030580;28;20057;-70
2022/08/25 04:42:31;;;;;;;9.82;6.47;;;20.00;99.90;;;;;;5020929;28;20049;-70
2022/08/25 04:44:58;;;;;;;8.95;6.40;;;20.00;99.90;;;;;;5025431;28;20053;-70
2022/08/25 04:47:25;;;;;;;9.98;5.88;;;19.90;99.90;;;;;;5024701;28;20053;-71
2022/08/25 04:49:54;;;;;;;8.43;6.50;;;19.90;99.90;;;;;;5027008;28;20412;-70
2022/08/25 04:52:21;;;;;;;10.13;6.57;;;19.90;99.90;;;;;;5009103;28;20057;-70
2022/08/25 04:54:48;;;;;;;13.27;7.75;;;19.80;99.90;;;;;;5012180;28;20054;-70
2022/08/25 04:57:15;;;;;;;13.80;7.07;;;19.80;99.90;;;;;;5021806;28;20493;-69
2022/08/25 04:59:42;;;;;;;24.50;9.38;;;19.90;99.90;;;;;;5028641;28;20081;-69
2022/08/25 05:02:09;;;;;;;33.13;12.20;;;19.90;99.90;;;;;;5029140;28;20046;-67
2022/08/25 05:04:36;;;;;;;37.20;11.80;;;19.90;99.90;;;;;;5025385;28;20049;-69
2022/08/25 05:07:03;;;;;;;36.72;11.23;;;19.90;99.90;;;;;;5016298;28;20041;-69
2022/08/25 05:09:30;;;;;;;16.52;9.25;;;19.80;99.90;;;;;;5013382;28;20069;-68
2022/08/25 05:11:59;;;;;;;15.95;8.25;;;19.80;99.90;;;;;;5024749;28;20049;-69
2022/08/25 05:14:26;;;;;;;12.45;7.93;;;19.70;99.90;;;;;;5026814;28;20053;-70
2022/08/25 05:16:55;;;;;;;11.75;7.78;;;19.70;99.90;;;;;;5024475;28;20060;-69
2022/08/25 05:19:22;;;;;;;13.52;8.35;;;19.70;99.90;;;;;;5022326;28;20049;-69
2022/08/25 05:21:50;;;;;;;16.83;7.70;;;19.70;99.90;;;;;;5025574;28;20080;-66
2022/08/25 05:24:17;;;;;;;8.75;7.78;;;19.70;99.90;;;;;;5012048;28;20046;-69
2022/08/25 05:26:44;;;;;;;9.38;7.55;;;19.80;99.90;;;;;;5027748;28;20064;-68
2022/08/25 05:29:11;;;;;;;11.30;7.22;;;19.80;99.90;;;;;;5033155;28;20046;-69
2022/08/25 05:31:38;;;;;;;8.85;6.25;;;19.80;99.90;;;;;;5029798;28;20050;-69
2022/08/25 05:34:11;;;;;;;10.68;8.02;;;19.80;99.90;;;;;;5029335;28;20060;-68
2022/08/25 05:36:41;;;;;;;10.65;7.22;;;19.80;99.90;;;;;;5030875;28;20049;-69
2022/08/25 05:39:09;;;;;;;9.88;7.88;;;19.80;99.90;;;;;;5031633;28;20103;-69
2022/08/25 05:41:36;;;;;;;9.88;5.93;;;19.80;99.90;;;;;;5030417;28;20068;-69
2022/08/25 05:44:03;;;;;;;8.55;6.65;;;19.80;99.90;;;;;;5031369;28;20045;-69
2022/08/25 05:46:30;;;;;;;8.63;6.28;;;19.80;99.90;;;;;;5033612;28;20490;-69
2022/08/25 05:48:57;;;;;;;10.02;6.90;;;19.70;99.90;;;;;;5030876;28;20099;-70
2022/08/25 05:51:25;;;;;;;9.40;7.63;;;19.70;99.90;;;;;;5031388;28;20124;-70
2022/08/25 05:53:52;;;;;;;8.20;7.13;;;19.70;99.90;;;;;;5026105;28;20413;-69
2022/08/25 05:56:19;;;;;;;9.65;7.57;;;19.70;99.90;;;;;;5033530;28;20490;-70
2022/08/25 05:58:46;;;;;;;11.77;8.48;;;19.70;99.90;;;;;;5031093;28;20061;-71
2022/08/25 06:04:11;;;;;;;11.75;9.95;;;19.70;99.90;;;;;;4999715;28;20038;-69
2022/08/25 06:06:38;;;;;;;11.95;10.20;;;19.60;99.90;;;;;;4993766;28;20058;-69
2022/08/25 06:09:07;;;;;;;15.57;12.25;;;19.60;99.90;;;;;;5020438;28;20512;-69
2022/08/25 06:11:36;;;;;;;31.42;25.63;;;19.60;99.90;;;;;;5014678;28;20056;-69
2022/08/25 06:14:03;;;;;;;58.83;52.80;;;19.40;99.90;;;;;;5018928;28;20052;-70
2022/08/25 06:16:30;;;;;;;14.50;13.10;;;19.40;99.90;;;;;;5019888;28;20050;-69
2022/08/25 06:18:57;;;;;;;17.65;13.02;;;19.40;99.90;;;;;;5014970;28;20053;-70
2022/08/25 06:21:24;;;;;;;12.60;10.93;;;19.30;99.90;;;;;;5022606;28;20054;-69
2022/08/25 06:23:51;;;;;;;12.15;10.95;;;19.30;99.90;;;;;;5013117;28;20046;-67
2022/08/25 06:26:18;;;;;;;11.57;10.45;;;19.30;99.90;;;;;;5023305;28;20466;-66
2022/08/25 06:28:50;;;;;;;11.23;10.00;;;19.20;99.90;;;;;;5014268;28;20488;-67
2022/08/25 06:31:17;;;;;;;12.50;10.48;;;19.20;99.90;;;;;;4999785;28;20490;-67
2022/08/25 06:33:44;;;;;;;31.83;28.60;;;19.20;99.90;;;;;;5004655;28;20049;-66
2022/08/25 06:36:11;;;;;;;81.50;72.78;;;19.30;99.90;;;;;;5026744;28;20052;-67
2022/08/25 06:38:38;;;;;;;18.73;16.75;;;19.30;99.90;;;;;;5032544;28;20051;-67
2022/08/25 06:41:05;;;;;;;13.57;12.25;;;19.30;99.90;;;;;;5031528;28;20057;-67
2022/08/25 06:43:33;;;;;;;12.35;10.90;;;19.40;99.90;;;;;;5032909;28;20045;-68
2022/08/25 06:46:14;;;;;;;12.38;10.85;;;19.30;99.90;;;;;;5024510;28;20045;-67
2022/08/25 06:48:41;;;;;;;11.65;10.55;;;19.40;99.90;;;;;;5013437;28;20054;-67
2022/08/25 06:51:09;;;;;;;9.93;9.05;;;19.40;99.90;;;;;;5029788;28;20054;-67
2022/08/25 06:53:40;;;;;;;10.63;9.63;;;19.40;99.90;;;;;;5014454;28;20136;-67
2022/08/25 06:56:07;;;;;;;11.70;9.77;;;19.40;99.90;;;;;;5029229;28;20049;-67
2022/08/25 06:58:34;;;;;;;12.00;10.70;;;19.40;99.90;;;;;;5028887;28;20397;-67
2022/08/25 07:01:19;;;;;;;15.88;12.43;;;19.50;99.90;;;;;;5031077;28;20161;-67
2022/08/25 07:03:46;;;;;;;15.52;11.95;;;19.50;99.90;;;;;;5012707;28;20049;-67
2022/08/25 07:06:14;;;;;;;14.55;12.98;;;19.50;99.90;;;;;;5028804;28;20092;-67
2022/08/25 07:08:44;;;;;;;15.85;13.00;;;19.40;99.90;;;;;;5013161;28;20046;-67
2022/08/25 07:11:13;;;;;;;14.93;12.45;;;19.50;99.90;;;;;;4995436;28;20061;-67
2022/08/25 07:13:42;;;;;;;14.60;11.80;;;19.40;99.90;;;;;;5011753;28;20858;-68
2022/08/25 07:16:14;;;;;;;10.55;9.55;;;19.50;99.90;;;;;;5022683;28;20497;-67
2022/08/25 07:18:41;;;;;;;13.07;10.80;;;19.50;99.90;;;;;;5013855;28;20077;-67
2022/08/25 07:21:10;;;;;;;11.50;10.40;;;19.50;99.90;;;;;;5028366;28;20137;-68
2022/08/25 07:23:38;;;;;;;12.10;10.77;;;19.50;99.90;;;;;;5016653;28;20103;-67
2022/08/25 07:26:28;;;;;;;12.32;11.07;;;19.50;99.90;;;;;;4996035;28;20054;-68
2022/08/25 07:29:10;;;;;;;12.63;10.45;;;19.40;99.90;;;;;;5013419;28;20429;-68
2022/08/25 07:31:37;;;;;;;11.38;10.02;;;19.40;99.90;;;;;;5024142;28;20064;-67
2022/08/25 07:36:52;;;;;;;9.68;8.65;;;19.40;99.90;;;;;;5012717;28;20104;-69
2022/08/25 07:39:19;;;;;;;11.00;8.57;;;19.40;99.90;;;;;;5011538;28;20041;-69
2022/08/25 07:41:47;;;;;;;10.27;7.15;;;19.50;99.90;;;;;;5012067;28;20081;-68
2022/08/25 07:44:18;;;;;;;10.02;8.25;;;19.50;99.90;;;;;;5012448;28;20078;-68
2022/08/25 07:46:45;;;;;;;9.77;8.35;;;19.50;99.90;;;;;;5014993;28;20053;-67
2022/08/25 07:49:12;;;;;;;8.93;8.02;;;19.60;99.90;;;;;;5011344;28;20121;-67
2022/08/25 07:51:43;;;;;;;10.43;7.60;;;19.50;99.90;;;;;;5020585;28;20045;-68
2022/08/25 07:54:30;;;;;;;12.90;7.93;;;19.50;99.90;;;;;;5016093;28;20381;-66
2022/08/25 07:57:02;;;;;;;10.23;8.00;;;19.50;99.90;;;;;;5019758;28;20535;-66
2022/08/25 07:59:29;;;;;;;9.52;7.95;;;19.50;99.90;;;;;;5011364;28;20050;-67
2022/08/25 08:02:06;;;;;;;95.78;85.65;;;19.50;99.90;;;;;;5021413;28;20130;-67
2022/08/25 08:04:35;;;;;;;39.97;35.63;;;19.50;99.90;;;;;;5012574;28;20053;-71
2022/08/25 08:07:02;;;;;;;14.75;13.27;;;19.50;99.90;;;;;;5014870;28;20041;-65
2022/08/25 08:09:32;;;;;;;10.43;8.40;;;19.50;99.90;;;;;;4995219;28;20129;-67
2022/08/25 08:11:59;;;;;;;8.48;6.32;;;19.50;99.90;;;;;;5011573;28;20049;-67
2022/08/25 08:14:26;;;;;;;11.30;6.75;;;19.50;99.90;;;;;;5013951;28;20062;-68
2022/08/25 08:16:53;;;;;;;6.40;5.80;;;19.60;99.90;;;;;;5012605;28;20069;-67
2022/08/25 08:19:21;;;;;;;7.20;5.60;;;19.60;99.90;;;;;;5027555;28;20056;-70
2022/08/25 08:21:49;;;;;;;6.03;4.93;;;19.60;99.90;;;;;;5024480;28;20132;-69
2022/08/25 08:24:20;;;;;;;6.68;6.00;;;19.60;99.90;;;;;;5006948;28;20129;-69
2022/08/25 08:27:07;;;;;;;6.38;4.78;;;19.50;99.90;;;;;;5011865;28;20496;-69
2022/08/25 08:29:34;;;;;;;5.80;5.20;;;19.60;99.90;;;;;;5015711;28;20124;-69
2022/08/25 08:32:02;;;;;;;6.72;5.80;;;19.60;99.90;;;;;;5025339;28;20052;-68
2022/08/25 08:34:31;;;;;;;8.38;6.60;;;19.60;99.90;;;;;;5030026;28;20053;-72
2022/08/25 08:36:58;;;;;;;6.43;5.80;;;19.60;99.90;;;;;;5021373;28;20069;-68
2022/08/25 08:39:26;;;;;;;8.60;6.50;;;19.70;99.90;;;;;;5021661;28;20049;-67
2022/08/25 08:42:18;;;;;;;7.88;5.80;;;19.70;99.90;;;;;;5030049;28;20133;-68
2022/08/25 08:44:44;;;;;;;6.95;6.25;;;19.80;99.90;;;;;;5010521;28;20057;-68
2022/08/25 08:47:18;;;;;;;6.30;5.63;;;19.70;99.90;;;;;;5021536;28;20441;-67
2022/08/25 08:50:05;;;;;;;6.25;5.35;;;19.70;99.90;;;;;;5015594;28;20057;-69
2022/08/25 08:52:46;;;;;;;8.27;5.50;;;19.70;99.90;;;;;;5009254;28;20385;-68
2022/08/25 08:55:30;;;;;;;5.75;5.20;;;19.60;99.90;;;;;;5016355;28;20057;-69
2022/08/25 08:58:01;;;;;;;6.40;5.68;;;19.60;99.90;;;;;;4999227;28;20060;-71
2022/08/25 09:00:28;;;;;;;8.85;5.32;;;19.70;99.90;;;;;;5013800;28;20382;-68
2022/08/25 09:03:25;;;;;;;8.50;5.28;;;19.70;99.90;;;;;;5007483;28;20049;-68
2022/08/25 09:05:54;;;;;;;6.65;5.90;;;19.70;99.90;;;;;;5050227;28;20064;-68
2022/08/25 09:08:21;;;;;;;7.70;5.30;;;19.70;99.90;;;;;;5023123;28;20485;-70
2022/08/25 09:11:08;;;;;;;7.60;6.03;;;19.70;99.90;;;;;;5017179;28;20037;-64
2022/08/25 09:14:09;;;;;;;6.18;5.45;;;19.70;99.90;;;;;;5028893;28;20054;-65
2022/08/25 09:16:55;;;;;;;5.57;5.07;;;19.60;99.90;;;;;;5037313;28;20050;-64
2022/08/25 09:20:08;;;;;;;6.28;5.78;;;19.60;99.90;;;;;;5014703;28;20053;-69
2022/08/25 09:22:45;;;;;;;116.32;104.00;;;19.60;99.90;;;;;;5004997;28;20129;-68
2022/08/25 09:25:44;;;;;;;21.38;19.42;;;19.50;99.90;;;;;;5022030;28;20043;-59
2022/08/25 09:28:35;;;;;;;11.75;10.55;;;19.60;99.90;;;;;;5019118;28;20045;-56
2022/08/25 09:31:32;;;;;;;9.90;8.07;;;19.60;99.90;;;;;;5023150;28;20081;-60
2022/08/25 09:34:01;;;;;;;7.75;7.05;;;19.60;99.90;;;;;;5009824;28;20046;-59
2022/08/25 09:36:29;;;;;;;7.93;7.03;;;19.50;99.90;;;;;;5015381;28;20497;-61
2022/08/25 09:39:06;;;;;;;8.32;7.45;;;19.40;99.90;;;;;;5015696;28;20453;-59
2022/08/25 09:41:43;;;;;;;7.70;7.00;;;19.40;99.90;;;;;;5029661;28;20050;-59
2022/08/25 09:44:24;;;;;;;9.32;7.70;;;19.40;99.90;;;;;;5015557;28;20057;-60
2022/08/25 09:47:00;;;;;;;9.25;8.07;;;19.30;99.90;;;;;;4999941;28;20041;-70
2022/08/25 09:49:51;;;;;;;11.35;8.20;;;19.40;99.90;;;;;;5029711;28;20467;-67
2022/08/25 09:52:25;;;;;;;5.40;4.90;;;19.40;99.90;;;;;;4983740;28;20050;-70
2022/08/25 09:54:53;;;;;;;7.45;5.57;;;19.40;99.90;;;;;;5029388;28;20046;-69
2022/08/25 09:57:29;;;;;;;6.50;4.85;;;19.40;99.90;;;;;;5010415;28;20042;-69
2022/08/25 09:59:56;;;;;;;7.28;6.20;;;19.40;99.90;;;;;;5027188;28;20049;-66
2022/08/25 10:02:27;;;;;;;5.82;5.25;;;19.40;99.90;;;;;;5034212;28;20049;-66
2022/08/25 10:04:54;;;;;;;6.35;5.70;;;19.40;99.90;;;;;;5009726;28;20045;-69
2022/08/25 10:07:38;;;;;;;7.60;6.13;;;19.50;99.90;;;;;;5017068;28;20054;-66
2022/08/25 10:10:41;;;;;;;7.93;6.82;;;19.60;99.90;;;;;;5029182;28;20041;-68
2022/08/25 10:13:18;;;;;;;7.72;7.05;;;19.60;99.90;;;;;;5017981;28;20053;-67
2022/08/25 10:16:07;;;;;;;7.28;6.30;;;19.60;99.90;;;;;;5018351;28;20041;-77
2022/08/25 10:19:09;;;;;;;6.00;5.30;;;19.60;99.90;;;;;;5017394;28;20037;-75
2022/08/25 10:21:37;;;;;;;6.35;4.82;;;19.60;99.90;;;;;;5019840;28;20053;-72
2022/08/25 10:24:05;;;;;;;24.02;21.48;;;19.60;99.90;;;;;;5025663;28;20481;-72
2022/08/25 10:26:58;;;;;;;8.88;7.22;;;19.50;99.90;;;;;;5030471;28;20049;-72
2022/08/25 10:29:50;;;;;;;6.38;4.15;;;19.60;99.90;;;;;;5018074;28;20046;-73
2022/08/25 10:32:32;;;;;;;4.32;3.40;;;19.60;99.90;;;;;;5015545;28;20088;-72
2022/08/25 10:35:03;;;;;;;3.95;2.42;;;19.60;99.90;;;;;;5022059;28;20045;-71
2022/08/25 10:37:42;;;;;;;3.03;2.25;;;19.50;99.90;;;;;;5031576;28;20048;-69
2022/08/25 10:40:31;;;;;;;;;;;19.60;99.90;;;;;;5032222;28;20124;-73
2022/08/25 10:43:06;;;;;;;2.42;1.80;;;19.60;99.90;;;;;;5028689;28;19928;-72
2022/08/25 10:45:49;;;;;;;2.65;2.40;;;19.60;99.90;;;;;;5017029;28;20490;-68
2022/08/25 10:48:28;;;;;;;4.22;2.90;;;19.50;99.90;;;;;;5016529;28;20081;-71
2022/08/25 10:51:05;;;;;;;4.13;3.58;;;19.50;99.90;;;;;;5018483;28;20046;-75
2022/08/25 10:54:04;;;;;;;4.82;3.80;;;19.50;99.90;;;;;;5025810;28;20056;-69
2022/08/25 10:56:35;;;;;;;;;;;19.60;99.90;;;;;;5029293;28;20136;-70
2022/08/25 10:59:21;;;;;;;3.38;2.95;;;19.70;99.90;;;;;;5028230;28;19925;-65
2022/08/25 11:02:14;;;;;;;3.85;2.67;;;19.80;99.90;;;;;;5025025;28;20485;-65
2022/08/25 11:05:11;;;;;;;3.40;3.05;;;19.80;99.90;;;;;;5007858;28;20042;-65
2022/08/25 11:07:49;;;;;;;3.50;2.45;;;19.70;99.90;;;;;;5029449;28;20049;-66
2022/08/25 11:10:21;;;;;;;6.13;3.72;;;19.70;99.90;;;;;;5010933;28;20485;-68
2022/08/25 11:12:59;;;;;;;5.05;4.18;;;19.70;99.90;;;;;;5029822;28;20053;-67
2022/08/25 11:15:32;;;;;;;3.42;3.10;;;19.80;99.90;;;;;;5027201;28;20106;-66
2022/08/25 11:18:02;;;;;;;4.78;3.53;;;19.80;99.90;;;;;;5023017;28;20390;-70
2022/08/25 11:20:37;;;;;;;3.38;3.08;;;19.90;99.90;;;;;;5012462;28;20050;-69
2022/08/25 11:23:23;;;;;;;3.90;3.15;;;19.90;99.90;;;;;;5013314;28;20050;-67
2022/08/25 11:25:52;;;;;;;5.53;3.53;;;19.90;99.90;;;;;;5013461;28;20099;-68
2022/08/25 11:28:30;;;;;;;3.50;2.97;;;20.00;99.90;;;;;;5012730;28;20066;-68
2022/08/25 11:30:58;;;;;;;4.78;4.13;;;20.00;99.90;;;;;;5023087;28;20049;-68
2022/08/25 11:33:25;;;;;;;5.47;4.00;;;20.00;99.90;;;;;;5012734;28;20084;-69
2022/08/25 11:35:54;;;;;;;4.72;3.95;;;20.00;99.90;;;;;;4997637;28;20048;-74
2022/08/25 11:38:38;;;;;;;6.25;3.92;;;20.00;99.90;;;;;;5020608;28;20046;-75
2022/08/25 11:41:36;;;;;;;5.10;3.78;;;20.10;99.90;;;;;;5021470;28;20041;-67
2022/08/25 11:44:39;;;;;;;5.97;5.38;;;20.20;99.90;;;;;;5013972;28;20046;-67
2022/08/25 11:47:39;;;;;;;4.07;3.53;;;20.20;99.90;;;;;;5015248;28;20052;-67
2022/08/25 11:50:22;;;;;;;4.82;3.60;;;20.30;99.90;;;;;;5017158;28;20050;-68
2022/08/25 11:53:19;;;;;;;3.80;3.03;;;20.30;99.90;;;;;;4985791;28;20553;-68
2022/08/25 11:56:01;;;;;;;3.50;2.85;;;20.40;99.90;;;;;;5012049;28;20048;-67
2022/08/25 11:58:38;;;;;;;3.65;3.35;;;20.60;99.90;;;;;;5012251;28;20056;-67
2022/08/25 12:01:44;;;;;;;2.95;2.17;;;20.70;99.90;;;;;;5011769;28;20069;-67
2022/08/25 12:04:29;;;;;;;2.70;2.40;;;20.70;99.90;;;;;;5027338;28;20081;-67
2022/08/25 12:07:06;;;;;;;2.22;1.73;;;20.60;99.90;;;;;;5019072;28;20061;-67
2022/08/25 12:09:53;;;;;;;2.35;1.90;;;20.50;99.90;;;;;;5031830;28;20053;-67
2022/08/25 12:12:29;;;;;;;5.43;2.72;;;20.50;99.90;;;;;;5016404;28;20042;-68
2022/08/25 12:15:18;;;;;;;6.82;3.10;;;20.50;99.90;;;;;;5012723;28;20054;-68
2022/08/25 12:17:46;;;;;;;;;;;20.70;99.90;;;;;;5013518;28;20125;-68
2022/08/25 12:20:17;;;;;;;5.22;2.70;;;20.70;99.90;;;;;;5011231;28;19999;-67
2022/08/25 12:22:53;;;;;;;3.50;2.20;;;20.70;99.90;;;;;;5011380;28;20053;-67
2022/08/25 12:25:34;;;;;;;3.42;2.40;;;20.90;99.90;;;;;;5011175;28;20104;-67
2022/08/25 12:28:08;;;;;;;2.97;2.67;;;21.10;99.90;;;;;;5001429;28;20050;-67
2022/08/25 12:30:51;;;;;;;4.65;3.03;;;21.30;99.90;;;;;;5002064;28;20129;-67
2022/08/25 12:33:24;;;;;;;3.60;2.85;;;21.40;99.90;;;;;;5007670;28;20481;-67
2022/08/25 12:36:00;;;;;;;3.28;2.42;;;21.50;99.90;;;;;;4992585;28;20062;-67
2022/08/25 12:38:32;;;;;;;3.55;2.35;;;21.60;99.90;;;;;;5023792;28;20494;-68
2022/08/25 12:41:11;;;;;;;4.63;2.33;;;21.80;99.90;;;;;;5007229;28;20075;-67
2022/08/25 12:43:39;;;;;;;2.47;2.08;;;21.80;99.90;;;;;;4991602;28;20046;-67
2022/08/25 12:46:20;;;;;;;2.63;1.83;;;21.80;99.90;;;;;;5011955;28;20485;-68
2022/08/25 12:48:57;;;;;;;4.63;2.35;;;21.80;99.90;;;;;;5010199;28;20137;-68
2022/08/25 12:51:31;;;;;;;3.28;1.85;;;21.80;99.90;;;;;;5004152;28;20061;-67
2022/08/25 12:54:24;;;;;;;2.55;1.83;;;21.90;99.90;;;;;;5022226;28;20054;-70
2022/08/25 12:57:02;;;;;;;3.92;2.20;;;22.00;99.90;;;;;;5013699;28;20465;-67
2022/08/25 12:59:35;;;;;;;4.20;2.55;;;21.90;99.90;;;;;;5014028;28;20413;-68
2022/08/25 13:02:17;;;;;;;60.30;53.85;;;21.90;99.90;;;;;;5011090;28;20053;-68
2022/08/25 13:05:15;;;;;;;8.32;6.95;;;22.00;99.90;;;;;;5012203;28;20097;-67
2022/08/25 13:07:54;;;;;;;4.53;3.20;;;22.00;99.90;;;;;;5011512;28;20049;-68
2022/08/25 13:10:27;;;;;;;2.83;2.20;;;22.10;99.90;;;;;;5026885;28;20045;-68
2022/08/25 13:13:20;;;;;;;4.38;2.85;;;22.10;99.90;;;;;;5013857;28;20045;-68
2022/08/25 13:15:58;;;;;;;3.35;2.38;;;22.10;99.90;;;;;;5010603;28;20085;-66
2022/08/25 13:18:28;;;;;;;2.58;2.13;;;22.00;99.90;;;;;;4994727;28;20410;-66